sensor_id;sensor_type;location;lat;lon;timestamp;pressure;altitude;pressure_sealevel;temperature;humidity
81387;BME280;70842;50.744;7.114;2023-07-22T00:00:30;100987.69;;;14.83;75.34
81387;BME280;70842;50.744;7.114;2023-07-22T00:02:57;100985.50;;;15.06;74.38
81387;BME280;70842;50.744;7.114;2023-07-22T00:05:24;100991.13;;;15.13;74.47
81387;BME280;70842;50.744;7.114;2023-07-22T00:07:51;100980.84;;;15.18;73.40
81387;BME280;70842;50.744;7.114;2023-07-22T00:10:18;100984.22;;;14.73;75.56
81387;BME280;70842;50.744;7.114;2023-07-22T00:12:45;100978.28;;;14.79;75.31
81387;BME280;70842;50.744;7.114;2023-07-22T00:15:11;100981.34;;;14.84;75.11
81387;BME280;70842;50.744;7.114;2023-07-22T00:17:39;100988.94;;;14.89;75.01
81387;BME280;70842;50.744;7.114;2023-07-22T00:20:07;100985.03;;;14.26;77.24
81387;BME280;70842;50.744;7.114;2023-07-22T00:22:38;100989.00;;;14.60;76.10
81387;BME280;70842;50.744;7.114;2023-07-22T00:25:07;100988.97;;;14.51;76.43
81387;BME280;70842;50.744;7.114;2023-07-22T00:27:40;100990.22;;;14.28;76.98
81387;BME280;70842;50.744;7.114;2023-07-22T00:30:07;100990.38;;;14.55;75.85
81387;BME280;70842;50.744;7.114;2023-07-22T00:32:34;100995.56;;;14.18;77.63
81387;BME280;70842;50.744;7.114;2023-07-22T00:35:06;101000.03;;;14.18;77.53
81387;BME280;70842;50.744;7.114;2023-07-22T00:37:33;100990.28;;;14.37;76.67
81387;BME280;70842;50.744;7.114;2023-07-22T00:40:00;100998.53;;;14.25;76.99
81387;BME280;70842;50.744;7.114;2023-07-22T00:42:28;100993.78;;;14.47;76.14
81387;BME280;70842;50.744;7.114;2023-07-22T00:44:54;100992.25;;;14.35;76.53
81387;BME280;70842;50.744;7.114;2023-07-22T00:47:21;100993.75;;;14.28;76.73
81387;BME280;70842;50.744;7.114;2023-07-22T00:49:49;100995.16;;;14.32;76.59
81387;BME280;70842;50.744;7.114;2023-07-22T00:52:15;100996.53;;;14.17;77.39
81387;BME280;70842;50.744;7.114;2023-07-22T00:54:43;101002.25;;;13.84;78.33
81387;BME280;70842;50.744;7.114;2023-07-22T00:57:10;100994.53;;;14.00;77.80
81387;BME280;70842;50.744;7.114;2023-07-22T00:59:39;100990.66;;;14.14;77.46
81387;BME280;70842;50.744;7.114;2023-07-22T01:02:05;101006.34;;;14.07;77.75
81387;BME280;70842;50.744;7.114;2023-07-22T01:04:33;100995.41;;;14.10;77.46
81387;BME280;70842;50.744;7.114;2023-07-22T01:07:03;100995.69;;;14.07;77.43
81387;BME280;70842;50.744;7.114;2023-07-22T01:09:35;100997.75;;;13.94;77.85
81387;BME280;70842;50.744;7.114;2023-07-22T01:12:01;101000.88;;;13.99;77.86
81387;BME280;70842;50.744;7.114;2023-07-22T01:14:28;100995.16;;;13.64;79.19
81387;BME280;70842;50.744;7.114;2023-07-22T01:16:54;100995.66;;;13.78;78.36
81387;BME280;70842;50.744;7.114;2023-07-22T01:19:21;100991.53;;;13.65;78.48
81387;BME280;70842;50.744;7.114;2023-07-22T01:21:49;100985.91;;;13.58;78.95
81387;BME280;70842;50.744;7.114;2023-07-22T01:24:16;100982.13;;;13.61;78.88
81387;BME280;70842;50.744;7.114;2023-07-22T01:26:43;100986.06;;;13.57;79.28
81387;BME280;70842;50.744;7.114;2023-07-22T01:29:09;100984.94;;;13.59;78.68
81387;BME280;70842;50.744;7.114;2023-07-22T01:31:37;100982.88;;;13.82;77.74
81387;BME280;70842;50.744;7.114;2023-07-22T01:34:04;100987.56;;;13.50;79.36
81387;BME280;70842;50.744;7.114;2023-07-22T01:36:30;100981.00;;;13.23;80.05
81387;BME280;70842;50.744;7.114;2023-07-22T01:38:57;100979.94;;;13.36;79.45
81387;BME280;70842;50.744;7.114;2023-07-22T01:41:23;100985.22;;;13.66;78.35
81387;BME280;70842;50.744;7.114;2023-07-22T01:43:50;100972.28;;;13.52;78.31
81387;BME280;70842;50.744;7.114;2023-07-22T01:46:16;100980.97;;;13.54;78.21
81387;BME280;70842;50.744;7.114;2023-07-22T01:48:43;100974.00;;;13.53;77.64
81387;BME280;70842;50.744;7.114;2023-07-22T01:51:09;100971.69;;;13.39;77.35
81387;BME280;70842;50.744;7.114;2023-07-22T01:53:35;100972.28;;;13.42;77.09
81387;BME280;70842;50.744;7.114;2023-07-22T01:56:02;100979.31;;;13.62;76.35
81387;BME280;70842;50.744;7.114;2023-07-22T01:58:28;100962.88;;;13.38;77.54
81387;BME280;70842;50.744;7.114;2023-07-22T02:00:55;100971.13;;;13.45;77.62
81387;BME280;70842;50.744;7.114;2023-07-22T02:03:21;100970.19;;;13.46;77.42
81387;BME280;70842;50.744;7.114;2023-07-22T02:05:48;100964.16;;;13.53;77.16
81387;BME280;70842;50.744;7.114;2023-07-22T02:08:15;100964.66;;;13.68;76.85
81387;BME280;70842;50.744;7.114;2023-07-22T02:10:41;100972.63;;;13.68;76.31
81387;BME280;70842;50.744;7.114;2023-07-22T02:13:07;100969.47;;;13.44;76.81
81387;BME280;70842;50.744;7.114;2023-07-22T02:15:34;100975.94;;;13.51;76.92
81387;BME280;70842;50.744;7.114;2023-07-22T02:18:01;100972.69;;;13.47;77.02
81387;BME280;70842;50.744;7.114;2023-07-22T02:20:27;100974.31;;;13.69;76.34
81387;BME280;70842;50.744;7.114;2023-07-22T02:22:55;100967.28;;;13.58;76.71
81387;BME280;70842;50.744;7.114;2023-07-22T02:25:21;100968.13;;;13.59;76.85
81387;BME280;70842;50.744;7.114;2023-07-22T02:27:48;100970.47;;;13.52;77.15
81387;BME280;70842;50.744;7.114;2023-07-22T02:30:15;100974.81;;;13.53;76.78
81387;BME280;70842;50.744;7.114;2023-07-22T02:32:41;100964.53;;;13.29;77.48
81387;BME280;70842;50.744;7.114;2023-07-22T02:35:08;100960.69;;;13.53;76.78
81387;BME280;70842;50.744;7.114;2023-07-22T02:37:37;100967.97;;;13.20;77.51
81387;BME280;70842;50.744;7.114;2023-07-22T02:40:04;100959.84;;;13.12;78.07
81387;BME280;70842;50.744;7.114;2023-07-22T02:42:34;100969.09;;;13.18;77.72
81387;BME280;70842;50.744;7.114;2023-07-22T02:45:02;100964.81;;;13.36;77.27
81387;BME280;70842;50.744;7.114;2023-07-22T02:47:30;100963.72;;;13.08;77.80
81387;BME280;70842;50.744;7.114;2023-07-22T02:49:56;100967.41;;;12.96;78.14
81387;BME280;70842;50.744;7.114;2023-07-22T02:52:23;100966.09;;;13.42;77.21
81387;BME280;70842;50.744;7.114;2023-07-22T02:57:31;100969.34;;;13.15;77.63
81387;BME280;70842;50.744;7.114;2023-07-22T02:59:57;100973.03;;;13.23;77.45
81387;BME280;70842;50.744;7.114;2023-07-22T03:02:24;100968.38;;;13.16;77.96
81387;BME280;70842;50.744;7.114;2023-07-22T03:04:50;100961.38;;;12.94;78.38
81387;BME280;70842;50.744;7.114;2023-07-22T03:07:16;100964.16;;;13.13;77.51
81387;BME280;70842;50.744;7.114;2023-07-22T03:09:43;100964.56;;;13.09;77.98
81387;BME280;70842;50.744;7.114;2023-07-22T03:12:09;100965.41;;;13.09;77.38
81387;BME280;70842;50.744;7.114;2023-07-22T03:14:36;100972.28;;;12.91;77.92
81387;BME280;70842;50.744;7.114;2023-07-22T03:17:03;100980.97;;;12.93;78.17
81387;BME280;70842;50.744;7.114;2023-07-22T03:19:30;100970.38;;;13.03;77.62
81387;BME280;70842;50.744;7.114;2023-07-22T03:21:56;100974.03;;;13.02;77.63
81387;BME280;70842;50.744;7.114;2023-07-22T03:24:22;100972.13;;;13.13;76.89
81387;BME280;70842;50.744;7.114;2023-07-22T03:26:49;100974.28;;;12.99;77.79
81387;BME280;70842;50.744;7.114;2023-07-22T03:29:15;100971.44;;;12.91;78.08
81387;BME280;70842;50.744;7.114;2023-07-22T03:31:42;100978.88;;;13.17;76.80
81387;BME280;70842;50.744;7.114;2023-07-22T03:34:08;100964.03;;;12.94;77.33
81387;BME280;70842;50.744;7.114;2023-07-22T03:36:35;100966.28;;;13.19;76.81
81387;BME280;70842;50.744;7.114;2023-07-22T03:39:01;100969.72;;;13.31;75.96
81387;BME280;70842;50.744;7.114;2023-07-22T03:41:29;100968.84;;;13.21;76.11
81387;BME280;70842;50.744;7.114;2023-07-22T03:43:55;100967.53;;;12.95;77.21
81387;BME280;70842;50.744;7.114;2023-07-22T03:46:21;100973.31;;;13.00;77.23
81387;BME280;70842;50.744;7.114;2023-07-22T03:48:48;100977.06;;;13.18;76.64
81387;BME280;70842;50.744;7.114;2023-07-22T03:51:14;100963.59;;;13.10;76.70
81387;BME280;70842;50.744;7.114;2023-07-22T03:53:46;100969.09;;;13.18;76.40
81387;BME280;70842;50.744;7.114;2023-07-22T03:56:12;100974.44;;;13.27;76.55
81387;BME280;70842;50.744;7.114;2023-07-22T03:58:39;100963.38;;;13.02;77.00
81387;BME280;70842;50.744;7.114;2023-07-22T04:01:05;100970.50;;;13.22;76.17
81387;BME280;70842;50.744;7.114;2023-07-22T04:03:32;100964.50;;;12.99;77.17
81387;BME280;70842;50.744;7.114;2023-07-22T04:05:58;100962.53;;;13.01;77.09
81387;BME280;70842;50.744;7.114;2023-07-22T04:08:25;100969.16;;;12.86;77.72
81387;BME280;70842;50.744;7.114;2023-07-22T04:10:55;100954.00;;;12.77;77.92
81387;BME280;70842;50.744;7.114;2023-07-22T04:13:23;100961.66;;;12.91;77.27
81387;BME280;70842;50.744;7.114;2023-07-22T04:15:51;100964.75;;;12.96;77.29
81387;BME280;70842;50.744;7.114;2023-07-22T04:18:18;100967.03;;;12.80;77.52
81387;BME280;70842;50.744;7.114;2023-07-22T04:20:45;100964.56;;;12.88;77.58
81387;BME280;70842;50.744;7.114;2023-07-22T04:23:12;100965.88;;;12.73;78.05
81387;BME280;70842;50.744;7.114;2023-07-22T04:25:43;100965.84;;;13.14;76.37
81387;BME280;70842;50.744;7.114;2023-07-22T04:28:09;100961.97;;;13.28;76.19
81387;BME280;70842;50.744;7.114;2023-07-22T04:30:37;100955.53;;;13.00;76.74
81387;BME280;70842;50.744;7.114;2023-07-22T04:33:04;100968.50;;;12.94;77.05
81387;BME280;70842;50.744;7.114;2023-07-22T04:35:32;100960.81;;;12.91;76.60
81387;BME280;70842;50.744;7.114;2023-07-22T04:37:59;100964.06;;;13.24;75.99
81387;BME280;70842;50.744;7.114;2023-07-22T04:40:25;100972.28;;;13.42;75.33
81387;BME280;70842;50.744;7.114;2023-07-22T04:42:52;100970.72;;;13.40;75.10
81387;BME280;70842;50.744;7.114;2023-07-22T04:45:18;100971.66;;;13.29;75.39
81387;BME280;70842;50.744;7.114;2023-07-22T04:47:45;100976.19;;;13.08;76.11
81387;BME280;70842;50.744;7.114;2023-07-22T04:50:13;100972.13;;;13.13;76.15
81387;BME280;70842;50.744;7.114;2023-07-22T04:52:42;100981.53;;;13.48;74.70
81387;BME280;70842;50.744;7.114;2023-07-22T04:55:10;100975.50;;;13.46;74.59
81387;BME280;70842;50.744;7.114;2023-07-22T04:57:37;100978.22;;;13.65;74.08
81387;BME280;70842;50.744;7.114;2023-07-22T05:00:05;100982.41;;;13.58;74.29
81387;BME280;70842;50.744;7.114;2023-07-22T05:02:32;100978.81;;;13.87;73.31
81387;BME280;70842;50.744;7.114;2023-07-22T05:04:58;100983.72;;;13.33;74.76
81387;BME280;70842;50.744;7.114;2023-07-22T05:07:25;100984.16;;;13.78;73.57
81387;BME280;70842;50.744;7.114;2023-07-22T05:09:55;100991.69;;;13.73;73.54
81387;BME280;70842;50.744;7.114;2023-07-22T05:12:22;100983.34;;;13.96;72.47
81387;BME280;70842;50.744;7.114;2023-07-22T05:14:48;100987.91;;;13.85;72.67
81387;BME280;70842;50.744;7.114;2023-07-22T05:17:15;100983.84;;;13.71;73.08
81387;BME280;70842;50.744;7.114;2023-07-22T05:19:41;100995.25;;;13.92;72.43
81387;BME280;70842;50.744;7.114;2023-07-22T05:22:08;100981.09;;;14.11;71.84
81387;BME280;70842;50.744;7.114;2023-07-22T05:24:34;100984.31;;;14.05;72.77
81387;BME280;70842;50.744;7.114;2023-07-22T05:27:01;100983.03;;;13.90;72.56
81387;BME280;70842;50.744;7.114;2023-07-22T05:29:35;100979.22;;;13.73;73.07
81387;BME280;70842;50.744;7.114;2023-07-22T05:32:01;100979.97;;;14.14;71.54
81387;BME280;70842;50.744;7.114;2023-07-22T05:34:28;100979.16;;;14.23;72.15
81387;BME280;70842;50.744;7.114;2023-07-22T05:36:54;100980.97;;;14.03;72.02
81387;BME280;70842;50.744;7.114;2023-07-22T05:39:20;100981.81;;;14.13;71.83
81387;BME280;70842;50.744;7.114;2023-07-22T05:41:47;100982.91;;;14.10;71.66
81387;BME280;70842;50.744;7.114;2023-07-22T05:44:13;100978.06;;;14.35;71.26
81387;BME280;70842;50.744;7.114;2023-07-22T05:46:40;100982.38;;;14.26;71.21
81387;BME280;70842;50.744;7.114;2023-07-22T05:49:06;100972.56;;;14.55;70.17
81387;BME280;70842;50.744;7.114;2023-07-22T05:51:33;100975.81;;;14.59;70.14
81387;BME280;70842;50.744;7.114;2023-07-22T05:53:59;100981.28;;;14.67;69.55
81387;BME280;70842;50.744;7.114;2023-07-22T05:56:25;100974.19;;;14.85;68.75
81387;BME280;70842;50.744;7.114;2023-07-22T05:58:52;100975.81;;;14.49;70.75
81387;BME280;70842;50.744;7.114;2023-07-22T06:01:19;100970.03;;;15.19;68.38
81387;BME280;70842;50.744;7.114;2023-07-22T06:03:46;100967.72;;;15.34;67.82
81387;BME280;70842;50.744;7.114;2023-07-22T06:06:12;100974.44;;;15.01;68.47
81387;BME280;70842;50.744;7.114;2023-07-22T06:08:39;100973.66;;;15.28;68.04
81387;BME280;70842;50.744;7.114;2023-07-22T06:11:05;100967.28;;;15.48;67.04
81387;BME280;70842;50.744;7.114;2023-07-22T06:13:31;100976.41;;;15.36;67.38
81387;BME280;70842;50.744;7.114;2023-07-22T06:15:58;100973.69;;;15.55;66.80
81387;BME280;70842;50.744;7.114;2023-07-22T06:18:24;100981.16;;;15.42;67.44
81387;BME280;70842;50.744;7.114;2023-07-22T06:20:51;100974.97;;;15.51;66.77
81387;BME280;70842;50.744;7.114;2023-07-22T06:23:17;100987.69;;;15.30;67.60
81387;BME280;70842;50.744;7.114;2023-07-22T06:25:44;100983.56;;;15.35;67.66
81387;BME280;70842;50.744;7.114;2023-07-22T06:28:10;100985.81;;;15.40;67.21
81387;BME280;70842;50.744;7.114;2023-07-22T06:30:36;100978.09;;;15.46;66.64
81387;BME280;70842;50.744;7.114;2023-07-22T06:33:03;100978.66;;;15.50;67.24
81387;BME280;70842;50.744;7.114;2023-07-22T06:35:29;100982.47;;;15.92;66.30
81387;BME280;70842;50.744;7.114;2023-07-22T06:37:56;100975.47;;;15.64;66.65
81387;BME280;70842;50.744;7.114;2023-07-22T06:40:24;100984.38;;;15.55;66.62
81387;BME280;70842;50.744;7.114;2023-07-22T06:42:50;100981.56;;;15.84;65.66
81387;BME280;70842;50.744;7.114;2023-07-22T06:45:17;100980.81;;;16.09;66.29
81387;BME280;70842;50.744;7.114;2023-07-22T06:47:43;100985.69;;;16.31;64.94
81387;BME280;70842;50.744;7.114;2023-07-22T06:50:10;100979.22;;;16.69;64.05
81387;BME280;70842;50.744;7.114;2023-07-22T06:52:36;100980.41;;;16.74;63.73
81387;BME280;70842;50.744;7.114;2023-07-22T06:55:03;100980.66;;;16.63;63.62
81387;BME280;70842;50.744;7.114;2023-07-22T06:57:29;100971.31;;;16.67;63.58
81387;BME280;70842;50.744;7.114;2023-07-22T06:59:56;100973.72;;;16.53;63.95
81387;BME280;70842;50.744;7.114;2023-07-22T07:02:22;100971.25;;;16.41;64.65
81387;BME280;70842;50.744;7.114;2023-07-22T07:04:49;100977.03;;;16.90;63.63
81387;BME280;70842;50.744;7.114;2023-07-22T07:07:16;100976.59;;;16.77;64.26
81387;BME280;70842;50.744;7.114;2023-07-22T07:09:43;100982.50;;;16.45;65.38
81387;BME280;70842;50.744;7.114;2023-07-22T07:12:09;100977.38;;;16.95;63.85
81387;BME280;70842;50.744;7.114;2023-07-22T07:14:36;100987.09;;;16.96;64.06
81387;BME280;70842;50.744;7.114;2023-07-22T07:17:02;100989.59;;;17.23;63.31
81387;BME280;70842;50.744;7.114;2023-07-22T07:19:29;100978.88;;;17.23;62.79
81387;BME280;70842;50.744;7.114;2023-07-22T07:21:55;100977.59;;;17.35;62.72
81387;BME280;70842;50.744;7.114;2023-07-22T07:24:22;100983.53;;;17.13;63.61
81387;BME280;70842;50.744;7.114;2023-07-22T07:26:48;100983.69;;;17.45;61.98
81387;BME280;70842;50.744;7.114;2023-07-22T07:29:14;100983.28;;;17.58;62.52
81387;BME280;70842;50.744;7.114;2023-07-22T07:32:01;100975.13;;;17.75;61.77
81387;BME280;70842;50.744;7.114;2023-07-22T07:34:29;100974.16;;;17.84;61.10
81387;BME280;70842;50.744;7.114;2023-07-22T07:36:56;100978.22;;;18.05;60.96
81387;BME280;70842;50.744;7.114;2023-07-22T07:39:22;100971.22;;;18.28;60.07
81387;BME280;70842;50.744;7.114;2023-07-22T07:41:49;100977.09;;;18.39;58.73
81387;BME280;70842;50.744;7.114;2023-07-22T07:44:15;100975.63;;;18.45;58.78
81387;BME280;70842;50.744;7.114;2023-07-22T07:46:41;100976.97;;;18.49;59.06
81387;BME280;70842;50.744;7.114;2023-07-22T07:49:08;100973.25;;;18.42;58.37
81387;BME280;70842;50.744;7.114;2023-07-22T07:51:34;100979.31;;;18.44;58.28
81387;BME280;70842;50.744;7.114;2023-07-22T07:54:01;100975.63;;;18.61;57.39
81387;BME280;70842;50.744;7.114;2023-07-22T07:56:27;100971.09;;;18.61;56.23
81387;BME280;70842;50.744;7.114;2023-07-22T07:58:55;100968.53;;;18.36;57.04
81387;BME280;70842;50.744;7.114;2023-07-22T08:01:22;100965.72;;;18.69;56.93
81387;BME280;70842;50.744;7.114;2023-07-22T08:03:48;100968.06;;;18.64;55.76
81387;BME280;70842;50.744;7.114;2023-07-22T08:06:15;100963.16;;;18.92;54.25
81387;BME280;70842;50.744;7.114;2023-07-22T08:08:45;100967.88;;;18.90;53.31
81387;BME280;70842;50.744;7.114;2023-07-22T08:11:14;100968.28;;;19.26;53.48
81387;BME280;70842;50.744;7.114;2023-07-22T08:13:41;100966.31;;;19.12;53.52
81387;BME280;70842;50.744;7.114;2023-07-22T08:16:09;100959.03;;;19.28;53.25
81387;BME280;70842;50.744;7.114;2023-07-22T08:18:36;100957.91;;;19.15;52.08
81387;BME280;70842;50.744;7.114;2023-07-22T08:21:04;100955.34;;;19.29;52.00
81387;BME280;70842;50.744;7.114;2023-07-22T08:23:31;100954.50;;;19.37;51.77
81387;BME280;70842;50.744;7.114;2023-07-22T08:25:58;100952.75;;;19.52;51.59
81387;BME280;70842;50.744;7.114;2023-07-22T08:28:25;100950.69;;;19.62;51.75
81387;BME280;70842;50.744;7.114;2023-07-22T08:30:55;100951.63;;;19.30;52.18
81387;BME280;70842;50.744;7.114;2023-07-22T08:33:24;100947.44;;;19.75;50.44
81387;BME280;70842;50.744;7.114;2023-07-22T08:36:06;100949.19;;;19.90;50.37
81387;BME280;70842;50.744;7.114;2023-07-22T08:38:33;100947.53;;;19.59;50.35
81387;BME280;70842;50.744;7.114;2023-07-22T08:40:59;100942.44;;;19.72;50.67
81387;BME280;70842;50.744;7.114;2023-07-22T08:43:27;100942.25;;;19.73;50.56
81387;BME280;70842;50.744;7.114;2023-07-22T08:45:54;100952.38;;;19.94;49.73
81387;BME280;70842;50.744;7.114;2023-07-22T08:48:26;100948.53;;;19.88;47.87
81387;BME280;70842;50.744;7.114;2023-07-22T08:50:55;100940.78;;;19.93;49.59
81387;BME280;70842;50.744;7.114;2023-07-22T08:53:23;100944.09;;;20.26;49.96
81387;BME280;70842;50.744;7.114;2023-07-22T08:55:51;100935.84;;;20.28;47.10
81387;BME280;70842;50.744;7.114;2023-07-22T08:58:18;100941.31;;;20.42;48.83
81387;BME280;70842;50.744;7.114;2023-07-22T09:00:45;100936.94;;;20.41;48.57
81387;BME280;70842;50.744;7.114;2023-07-22T09:03:14;100941.31;;;20.42;49.05
81387;BME280;70842;50.744;7.114;2023-07-22T09:05:43;100933.63;;;20.54;47.63
81387;BME280;70842;50.744;7.114;2023-07-22T09:08:10;100931.47;;;20.49;46.32
81387;BME280;70842;50.744;7.114;2023-07-22T09:10:37;100931.47;;;20.49;46.65
81387;BME280;70842;50.744;7.114;2023-07-22T09:13:04;100930.03;;;20.61;46.74
81387;BME280;70842;50.744;7.114;2023-07-22T09:15:35;100930.28;;;20.66;45.47
81387;BME280;70842;50.744;7.114;2023-07-22T09:18:05;100937.84;;;20.71;46.25
81387;BME280;70842;50.744;7.114;2023-07-22T09:20:32;100933.66;;;20.68;47.55
81387;BME280;70842;50.744;7.114;2023-07-22T09:23:00;100937.06;;;20.25;47.38
81387;BME280;70842;50.744;7.114;2023-07-22T09:25:40;100937.34;;;20.30;45.37
81387;BME280;70842;50.744;7.114;2023-07-22T09:28:07;100941.97;;;20.13;48.20
81387;BME280;70842;50.744;7.114;2023-07-22T09:30:38;100935.19;;;20.48;45.82
81387;BME280;70842;50.744;7.114;2023-07-22T09:33:20;100938.25;;;20.82;44.91
81387;BME280;70842;50.744;7.114;2023-07-22T09:35:48;100928.03;;;20.92;42.78
81387;BME280;70842;50.744;7.114;2023-07-22T09:38:23;100928.59;;;21.32;42.62
81387;BME280;70842;50.744;7.114;2023-07-22T09:40:51;100925.16;;;21.52;39.04
81387;BME280;70842;50.744;7.114;2023-07-22T09:43:18;100927.59;;;21.33;39.11
81387;BME280;70842;50.744;7.114;2023-07-22T09:45:47;100926.56;;;21.34;40.13
81387;BME280;70842;50.744;7.114;2023-07-22T09:48:14;100926.22;;;21.08;38.39
81387;BME280;70842;50.744;7.114;2023-07-22T09:50:41;100920.34;;;21.04;39.91
81387;BME280;70842;50.744;7.114;2023-07-22T09:53:07;100920.59;;;21.38;35.81
81387;BME280;70842;50.744;7.114;2023-07-22T09:55:34;100924.47;;;21.65;35.24
81387;BME280;70842;50.744;7.114;2023-07-22T09:58:02;100922.50;;;21.73;34.76
81387;BME280;70842;50.744;7.114;2023-07-22T10:00:35;100920.84;;;21.58;36.18
81387;BME280;70842;50.744;7.114;2023-07-22T10:03:04;100918.34;;;21.56;35.71
81387;BME280;70842;50.744;7.114;2023-07-22T10:05:38;100918.09;;;21.37;34.02
81387;BME280;70842;50.744;7.114;2023-07-22T10:08:06;100915.50;;;21.79;35.51
81387;BME280;70842;50.744;7.114;2023-07-22T10:10:35;100913.94;;;22.06;33.46
81387;BME280;70842;50.744;7.114;2023-07-22T10:13:02;100909.50;;;21.98;33.29
81387;BME280;70842;50.744;7.114;2023-07-22T10:15:31;100913.56;;;21.88;33.48
81387;BME280;70842;50.744;7.114;2023-07-22T10:18:00;100916.97;;;21.46;33.00
81387;BME280;70842;50.744;7.114;2023-07-22T10:20:28;100917.91;;;21.74;35.22
81387;BME280;70842;50.744;7.114;2023-07-22T10:22:55;100905.91;;;22.12;32.24
81387;BME280;70842;50.744;7.114;2023-07-22T10:25:22;100910.94;;;22.15;33.00
81387;BME280;70842;50.744;7.114;2023-07-22T10:27:51;100906.84;;;22.47;32.68
81387;BME280;70842;50.744;7.114;2023-07-22T10:30:19;100899.38;;;22.49;33.46
81387;BME280;70842;50.744;7.114;2023-07-22T10:32:48;100904.41;;;22.10;31.77
81387;BME280;70842;50.744;7.114;2023-07-22T10:36:00;100891.19;;;22.36;32.47
81387;BME280;70842;50.744;7.114;2023-07-22T10:38:31;100889.19;;;22.23;31.01
81387;BME280;70842;50.744;7.114;2023-07-22T10:40:58;100893.34;;;22.47;30.39
81387;BME280;70842;50.744;7.114;2023-07-22T10:43:32;100892.50;;;22.68;31.60
81387;BME280;70842;50.744;7.114;2023-07-22T10:46:09;100885.94;;;22.07;32.57
81387;BME280;70842;50.744;7.114;2023-07-22T10:48:38;100884.94;;;22.35;32.89
81387;BME280;70842;50.744;7.114;2023-07-22T10:53:48;100878.44;;;22.79;29.82
81387;BME280;70842;50.744;7.114;2023-07-22T10:56:24;100882.50;;;22.96;30.61
81387;BME280;70842;50.744;7.114;2023-07-22T10:58:56;100873.19;;;22.71;27.60
81387;BME280;70842;50.744;7.114;2023-07-22T11:09:40;100858.31;;;23.22;27.80
81387;BME280;70842;50.744;7.114;2023-07-22T11:12:13;100874.59;;;23.35;27.84
81387;BME280;70842;50.744;7.114;2023-07-22T11:14:47;100866.44;;;23.28;27.56
81387;BME280;70842;50.744;7.114;2023-07-22T11:17:14;100855.34;;;23.10;28.83
81387;BME280;70842;50.744;7.114;2023-07-22T11:19:41;100853.56;;;23.31;28.04
81387;BME280;70842;50.744;7.114;2023-07-22T11:22:07;100852.97;;;22.94;27.20
81387;BME280;70842;50.744;7.114;2023-07-22T11:24:34;100843.72;;;23.64;27.83
81387;BME280;70842;50.744;7.114;2023-07-22T11:27:06;100835.63;;;23.70;26.87
81387;BME280;70842;50.744;7.114;2023-07-22T11:29:34;100840.81;;;23.72;27.01
81387;BME280;70842;50.744;7.114;2023-07-22T11:32:01;100846.47;;;23.96;28.83
81387;BME280;70842;50.744;7.114;2023-07-22T11:34:28;100841.25;;;23.82;26.95
81387;BME280;70842;50.744;7.114;2023-07-22T11:36:56;100842.81;;;23.50;28.40
81387;BME280;70842;50.744;7.114;2023-07-22T11:39:26;100844.34;;;23.66;28.65
81387;BME280;70842;50.744;7.114;2023-07-22T11:41:53;100839.06;;;23.38;27.43
81387;BME280;70842;50.744;7.114;2023-07-22T11:44:22;100837.88;;;23.54;27.06
81387;BME280;70842;50.744;7.114;2023-07-22T11:46:55;100836.44;;;23.64;27.24
81387;BME280;70842;50.744;7.114;2023-07-22T11:49:30;100833.25;;;23.54;26.78
81387;BME280;70842;50.744;7.114;2023-07-22T11:54:29;100826.66;;;23.16;27.17
81387;BME280;70842;50.744;7.114;2023-07-22T11:56:56;100833.56;;;23.25;26.81
81387;BME280;70842;50.744;7.114;2023-07-22T11:59:33;100832.47;;;23.67;27.23
81387;BME280;70842;50.744;7.114;2023-07-22T12:02:01;100827.09;;;23.86;26.64
81387;BME280;70842;50.744;7.114;2023-07-22T12:04:28;100827.34;;;24.24;27.46
81387;BME280;70842;50.744;7.114;2023-07-22T12:06:55;100831.25;;;23.82;26.56
81387;BME280;70842;50.744;7.114;2023-07-22T12:09:22;100832.97;;;24.23;26.48
81387;BME280;70842;50.744;7.114;2023-07-22T12:11:58;100835.91;;;24.08;26.44
81387;BME280;70842;50.744;7.114;2023-07-22T12:14:32;100819.63;;;24.01;25.95
81387;BME280;70842;50.744;7.114;2023-07-22T12:16:59;100821.66;;;23.73;26.58
81387;BME280;70842;50.744;7.114;2023-07-22T12:19:29;100809.69;;;23.35;26.70
81387;BME280;70842;50.744;7.114;2023-07-22T12:21:56;100818.63;;;24.09;27.04
81387;BME280;70842;50.744;7.114;2023-07-22T12:24:23;100818.59;;;24.42;27.49
81387;BME280;70842;50.744;7.114;2023-07-22T12:26:50;100816.84;;;24.73;26.57
81387;BME280;70842;50.744;7.114;2023-07-22T12:29:16;100810.06;;;24.45;27.02
81387;BME280;70842;50.744;7.114;2023-07-22T12:31:43;100825.06;;;24.41;26.63
81387;BME280;70842;50.744;7.114;2023-07-22T12:34:09;100817.50;;;23.90;25.56
81387;BME280;70842;50.744;7.114;2023-07-22T12:36:35;100805.50;;;24.26;25.07
81387;BME280;70842;50.744;7.114;2023-07-22T12:39:02;100808.31;;;24.90;25.51
81387;BME280;70842;50.744;7.114;2023-07-22T12:41:29;100810.19;;;24.83;26.00
81387;BME280;70842;50.744;7.114;2023-07-22T12:43:55;100809.84;;;24.46;25.90
81387;BME280;70842;50.744;7.114;2023-07-22T12:46:22;100804.03;;;24.17;26.20
81387;BME280;70842;50.744;7.114;2023-07-22T12:48:48;100798.59;;;24.17;26.13
81387;BME280;70842;50.744;7.114;2023-07-22T12:51:15;100794.84;;;24.24;25.04
81387;BME280;70842;50.744;7.114;2023-07-22T12:53:41;100801.66;;;24.72;25.91
81387;BME280;70842;50.744;7.114;2023-07-22T12:56:08;100795.88;;;24.43;26.08
81387;BME280;70842;50.744;7.114;2023-07-22T12:58:34;100804.38;;;24.66;27.80
81387;BME280;70842;50.744;7.114;2023-07-22T13:01:01;100792.00;;;24.96;25.36
81387;BME280;70842;50.744;7.114;2023-07-22T13:03:27;100796.19;;;24.86;25.44
81387;BME280;70842;50.744;7.114;2023-07-22T13:05:53;100784.59;;;24.59;25.26
81387;BME280;70842;50.744;7.114;2023-07-22T13:08:20;100785.78;;;24.89;25.49